Tiempo atmosférico en la estación meteorológica de Alcañices, Zamora (840 m.)



Fecha
DESCASC
Temp. máxima en grados centígrados (hora)
DESCASC
Temp. mínima en grados centígrados (hora)
DESCASC
Temp. media en grados centígrados
DESCASC
Racha de viento máxima en m/sg (hora)
DESCASC
Velocidad máxima media en intervalos de 10 minutos(hora)
DESCASC
Precipitaciones diarias en mm
DESCASC
Precipitaciones de 00:00 a 06:00 en mm
DESCASC
Precipitaciones de 06:00 a 12:00 en mm
DESCASC
Precipitaciones de 12:00 a 18:00 en mm
DESCASC
Precipitaciones de 18:00 a 24:00 en mm
DESCASC
04-03-2021 14.7 (15:20) 4 (07:50) 9.3 8.33 (11:10) 6.39 (11:30) 0 0 0 0 0
03-03-2021 17.4 (16:00) 3.8 (07:30) 10.6 6.94 (13:30) 5 (22:40) 0 0 0 0 0
02-03-2021 12.4 (17:40) 4.8 (02:20) 8.6 8.33 (14:20) 5.28 (14:20) 1.2 0 1.2 0 0
01-03-2021 12.3 (16:00) 2.4 (06:40) 7.4 8.06 (16:10) 4.44 (19:50) 3 1 1.2 0.6 0.2
28-02-2021 14.7 (16:10) 0.7 (00:00) 7.7 11.94 (09:30) 8.33 (09:40) 0 0 0 0 0
27-02-2021 15.7 (16:50) 4.3 (00:00) 10 10.28 (10:00) 7.78 (10:10) 0 0 0 0 0
26-02-2021 13.5 (17:00) 5.1 (00:00) 9.3 12.5 (11:50) 9.17 (11:30) 0 0 0 0 0
25-02-2021 12.1 (17:00) 6.3 (00:00) 9.2 8.61 (10:50) 5.56 (10:50) 0.2 0 0 0.2 0
24-02-2021 15.1 (15:50) 0.1 (00:00) 7.6 11.67 (16:40) 7.5 (16:40) 0 0 0 0 0
23-02-2021 14.6 (16:50) -1.2 (-00:0) 6.7 8.06 (15:10) 5 (16:10) 0 0 0 0 0
22-02-2021 11.7 (16:30) -2.1 (-00:0) 4.8 7.22 (15:20) 3.89 (02:10) 0 0 0 0 0
21-02-2021 9.8 (07:00) 2.5 (00:00) 6.2 16.11 (07:50) 10.28 (07:40) 2 0.2 1.6 0.2 0
20-02-2021 10.2 (11:50) 6.7 (00:00) 8.4 18.33 (12:00) 12.5 (12:00) 5 0 0 3.6 1.4
19-02-2021 11.5 (15:20) 6.4 (00:00) 9 15.56 (15:20) 8.89 (16:20) 0.2 0 0.2 0 0
18-02-2021 9.9 (15:00) 6.4 (00:00) 8.1 13.89 (12:00) 8.89 (14:20) 9.4 0 4.8 4.6 0
17-02-2021 10.4 (17:00) 6.9 (00:00) 8.6 11.39 (20:50) 6.39 (21:20) 2 0.6 0 1.4 0
16-02-2021 10.4 (12:40) 5.8 (00:00) 8.1 13.89 (11:20) 9.17 (12:10) 4 0 0 2.8 1.2
15-02-2021 16.8 (16:00) 2.6 (00:00) 9.7 10.83 (23:20) 6.39 (22:10) 0 0 0 0 0
14-02-2021 16.7 (16:40) 1.8 (00:00) 9.3 8.61 (16:00) 5.56 (16:20) 0 0 0 0 0
13-02-2021 14 (15:00) 3.9 (00:00) 9 7.78 (11:30) 5.28 (11:30) 0 0 0 0 0
12-02-2021 13 (16:10) 5.4 (00:00) 9.2 14.17 (01:40) 8.61 (00:20) 4.8 4.8 0 0 0
11-02-2021 12.7 (15:00) 5.2 (00:00) 8.9 14.72 (23:59) 9.17 (23:59) 4.4 0.2 0.6 0.2 3.4
10-02-2021 10.3 (16:40) 3.1 (00:00) 6.7 19.72 (01:50) 10.83 (01:50) 5 5 0 0 0
09-02-2021 6 (09:10) 1.9 (00:00) 3.9 18.33 (09:00) 11.39 (09:30) 35.2 4.6 19.4 5.4 5.8
08-02-2021 5.9 (01:40) 3.6 (00:00) 4.8 15 (14:30) 9.72 (14:30) 12.6 4.2 2.2 5.2 1
07-02-2021 5.4 (23:50) 0.8 (00:00) 3.1 11.39 (14:00) 7.78 (14:00) 6 0 0 1 5
06-02-2021 6.9 (03:10) 3.6 (00:00) 5.3 11.94 (12:30) 8.33 (13:30) 10.4 8 2.2 0 0.2
05-02-2021 8.4 (15:00) 4.3 (00:00) 6.3 8.61 (23:50) 6.11 (10:40) 18.6 1 7.2 2 8.4
04-02-2021 6.1 (02:30) 4.1 (00:00) 5.1 6.94 (03:10) 4.17 (03:20) 4.6 0 0.6 4 0

Gráficas

Temp. máximas Temp. mínimas Temp. medias Precipitaciones Rachas de viento máximas Velocidades máximas media en intervalos de 10 minutos

Datos horarios

Fecha y hora oficial Temperatura (ºC) Velocidad del viento (km/h) Dirección del viento Racha (km/h) Dirección de racha Precipitación (mm) Presión (hPa) Tendencia (hPa) Humedad (%)
2021-03-05 23:00:00 6.6 24 Nordeste 34 Nordeste 0 -- -- 80
2021-03-05 22:00:00 7.5 22 Nordeste 33 Nordeste 0 -- -- 75
2021-03-05 21:00:00 8.5 21 Nordeste 34 Nordeste 0 -- -- 75
2021-03-05 20:00:00 9.6 17 Nordeste 26 Nordeste 0 -- -- 66
2021-03-05 19:00:00 11.5 17 Nordeste 28 Nordeste 0 -- -- 60
2021-03-05 18:00:00 13.7 21 Nordeste 33 Nordeste 0 -- -- 51
2021-03-05 17:00:00 15.1 21 Nordeste 35 Nordeste 0 -- -- 49
2021-03-05 16:00:00 15.3 23 Nordeste 34 Este 0 -- -- 48
2021-03-05 15:00:00 14.9 23 Nordeste 37 Nordeste 0 -- -- 55
2021-03-05 14:00:00 13.8 26 Este 42 Este 0 -- -- 64
2021-03-05 13:00:00 13.6 27 Nordeste 40 Nordeste 0 -- -- 57
2021-03-05 12:00:00 13.1 23 Nordeste 36 Este 0 -- -- 65
2021-03-05 11:00:00 10.8 21 Nordeste 31 Nordeste 0 -- -- 74
2021-03-05 10:00:00 9 19 Nordeste 28 Nordeste 0 -- -- 79
2021-03-05 09:00:00 6.2 12 Nordeste 20 Nordeste 0 -- -- 89
2021-03-05 08:00:00 4.8 13 Nordeste 23 Nordeste 0 -- -- 93
2021-03-05 07:00:00 5.1 15 Nordeste 23 Nordeste 0 -- -- 92
2021-03-05 06:00:00 5.3 16 Nordeste 25 Nordeste 0 -- -- 92
2021-03-05 05:00:00 5.8 18 Nordeste 23 Nordeste 0 -- -- 92
2021-03-05 04:00:00 5.5 14 Nordeste 18 Nordeste 0 -- -- 91
2021-03-05 03:00:00 6.1 12 Nordeste 19 Nordeste 0 -- -- 88
2021-03-05 02:00:00 7 15 Nordeste 19 Este 0 -- -- 84
2021-03-05 01:00:00 6.7 17 Nordeste 19 Este 0 -- -- 87
2021-03-05 00:00:00 6.8 14 Este 21 Este 0 -- -- 85
2021-03-04 23:00:00 8 16 Nordeste 20 Nordeste 0 -- -- 82
2021-03-04 22:00:00 8.8 9 Nordeste 10 Este 0 -- -- 76
2021-03-04 21:00:00 8.1 9 Este 12 Sudeste 0 -- -- 88
2021-03-04 20:00:00 9.2 9 Nordeste 10 Nordeste 0 -- -- 84
2021-03-04 19:00:00 10.6 9 Norte 10 Norte 0 -- -- 76
2021-03-04 18:00:00 12.8 7 Este 19 Este 0 -- -- 66
2021-03-04 17:00:00 14.3 13 Este 21 Este 0 -- -- 60
2021-03-04 16:00:00 14.2 10 Este 25 Nordeste 0 -- -- 64
2021-03-04 15:00:00 13.8 18 Este 29 Este 0 -- -- 66
2021-03-04 14:00:00 13.3 18 Este 27 Este 0 -- -- 66
2021-03-04 13:00:00 13.5 16 Este 24 Este 0 -- -- 66
2021-03-04 12:00:00 12 18 Este 30 Este 0 -- -- 75
2021-03-04 11:00:00 10.6 22 Nordeste 29 Nordeste 0 -- -- 77
2021-03-04 10:00:00 8.5 19 Nordeste 25 Este 0 -- -- 85
2021-03-04 09:00:00 5.1 13 Nordeste 21 Nordeste 0 -- -- 95
2021-03-04 08:00:00 4.1 17 Nordeste 20 Nordeste 0 -- -- 97
2021-03-04 07:00:00 4.7 17 Este 20 Este 0 -- -- 96
2021-03-04 06:00:00 5.1 13 Nordeste 14 Nordeste 0 -- -- 95
2021-03-04 05:00:00 5.4 11 Nordeste 13 Nordeste 0 -- -- 95
2021-03-04 04:00:00 5.7 12 Nordeste 13 Nordeste 0 -- -- 94
2021-03-04 03:00:00 6.5 3 Nordeste 8 Sudeste 0 -- -- 92
2021-03-04 02:00:00 7.4 7 Sudeste 14 Nordeste 0 -- -- 87
2021-03-04 01:00:00 7.4 12 Nordeste 15 Este 0 -- -- 89
2021-03-04 00:00:00 8.8 14 Este 17 Este 0 -- -- 82
2021-03-03 23:00:00 9.2 12 Sudeste 25 Sur 0 -- -- 88
2021-03-03 22:00:00 9.5 14 Este 17 Este 0 -- -- 76
2021-03-03 21:00:00 8.8 12 Este 14 Este 0 -- -- 82
2021-03-03 20:00:00 10.6 9 Este 12 Este 0 -- -- 76
2021-03-03 19:00:00 13.1 5 Sudeste 9 Sudeste 0 -- -- 63
2021-03-03 18:00:00 14.3 7 Sudoeste 15 Sudoeste 0 -- -- 53
2021-03-03 17:00:00 15.2 5 Oeste 24 Sudoeste 0 -- -- 50
2021-03-03 16:00:00 17.4 8 Sur 20 Sudoeste 0 -- -- 45
2021-03-03 15:00:00 14.3 14 Sudeste 23 Sudeste 0 -- -- 54
2021-03-03 14:00:00 16.4 12 Sudeste 25 Sudoeste 0 -- -- 48
2021-03-03 13:00:00 14.5 6 Nordeste 17 Este 0 -- -- 66
2021-03-03 12:00:00 13.7 10 Este 16 Este 0 -- -- 71
2021-03-03 11:00:00 10.3 6 Nordeste 12 Nordeste 0 -- -- 88
2021-03-03 10:00:00 7.5 7 Nordeste 10 Nordeste 0 -- -- 100
2021-03-03 09:00:00 5.7 6 Nordeste 11 Nordeste 0 -- -- 100
2021-03-03 08:00:00 4.1 8 Nordeste 12 Nordeste 0 -- -- 100
2021-03-03 07:00:00 4.4 6 Nordeste 9 Nordeste 0 -- -- 100
2021-03-03 06:00:00 5.9 4 Este 12 Sudeste 0 -- -- 98
2021-03-03 05:00:00 5.7 11 Sudeste 15 Sudeste 0 -- -- 100
2021-03-03 04:00:00 4.5 10 Nordeste 12 Nordeste 0 -- -- 100
2021-03-03 03:00:00 4.4 8 Nordeste 12 Nordeste 0 -- -- 100
2021-03-03 02:00:00 6.4 4 Sudoeste 6 Sur 0 -- -- 98
2021-03-03 01:00:00 5.8 2 Sur 6 Sudoeste 0 -- -- 99
2021-03-03 00:00:00 6.9 3 Sudeste 6 Sudoeste 0 -- -- 94
2021-03-02 23:00:00 7.2 4 Sudoeste -- -- 0 -- -- 93
2021-03-02 22:00:00 7.1 5 Sur 6 Sur 0 -- -- 92
2021-03-02 21:00:00 7.9 4 Sudeste 7 Sudoeste 0 -- -- 89
2021-03-02 20:00:00 9.5 7 Sudoeste 8 Sudoeste 0 -- -- 82
2021-03-02 19:00:00 10.3 4 Oeste 23 Oeste 0 -- -- 81
2021-03-02 18:00:00 11.6 14 Sudoeste 20 Sudoeste 0 -- -- 72
2021-03-02 17:00:00 11.8 10 Sudoeste 24 Sudoeste 0 -- -- 72
2021-03-02 16:00:00 12.2 12 Sudoeste 26 Sudoeste 0 -- -- 70
2021-03-02 15:00:00 11.1 10 Sudoeste 30 Sudoeste 0 -- -- 79
2021-03-02 14:00:00 9.9 16 Sudoeste 24 Sudoeste 0 -- -- 87
2021-03-02 13:00:00 8.8 12 Sudoeste 19 Sudoeste 0 -- -- 94
2021-03-02 12:00:00 7.9 11 Sudoeste 18 Sudoeste 0 -- -- 98
2021-03-02 11:00:00 7.2 9 Sur 13 Sur 0 -- -- 100
2021-03-02 10:00:00 6.9 9 Sur 15 Sur 0.6 -- -- 100
2021-03-02 09:00:00 6.5 8 Sur 13 Sur 0.6 -- -- 98
2021-03-02 08:00:00 6.5 5 Sur 9 Sudeste 0 -- -- 98
2021-03-02 07:00:00 6.4 6 Sur 9 Sur 0 -- -- 97
2021-03-02 06:00:00 6.6 9 Sur 12 Sur 0 -- -- 95
2021-03-02 05:00:00 6.4 8 Sur 12 Sur 0 -- -- 96
2021-03-02 04:00:00 6.3 9 Sur 10 Sur 0 -- -- 95
2021-03-02 03:00:00 5.5 5 Sur 8 Sur 0 -- -- 97
2021-03-02 02:00:00 4.9 5 Sur 12 Oeste 0 -- -- 96
2021-03-02 01:00:00 6 7 Sudoeste 17 Sur 0 -- -- 93
2021-03-02 00:00:00 6.7 11 Sudeste 14 Sudeste 0 -- -- 93
2021-03-01 23:00:00 7.5 6 Sur 17 Sudeste 0 -- -- 93
2021-03-01 22:00:00 7.4 12 Sudeste 17 Sudeste 0 -- -- 94
2021-03-01 21:00:00 7.3 12 Sudeste 21 Sudeste 0.2 -- -- 95
2021-03-01 20:00:00 7.7 15 Sudeste 24 Este 0 -- -- 93
2021-03-01 19:00:00 8.9 11 Sudeste 18 Sudeste 0 -- -- 88
2021-03-01 18:00:00 10.6 9 Sudeste 17 Sudoeste 0.2 -- -- 84
2021-03-01 17:00:00 12 12 Sudoeste 29 Sur 0 -- -- 71
2021-03-01 16:00:00 12.3 14 Sur 22 Sur 0 -- -- 68
2021-03-01 15:00:00 9.6 8 Este 13 Este 0 -- -- 92
2021-03-01 14:00:00 8.9 8 Este 21 Sur 0 -- -- 93
2021-03-01 13:00:00 9.3 15 Sur 22 Sur 0.4 -- -- 85
2021-03-01 12:00:00 7.5 12 Sur 19 Sur 0.8 -- -- 90
2021-03-01 11:00:00 9.4 8 Sur 12 Sur 0 -- -- 81
2021-03-01 10:00:00 7.7 8 Sudeste 13 Sudeste 0 -- -- 90
2021-03-01 09:00:00 5.1 7 Sudeste 12 Este 0.4 -- -- 100
2021-03-01 08:00:00 4 5 Este 13 Este 0 -- -- 100
2021-03-01 07:00:00 2.7 10 Este 15 Nordeste 0 -- -- 100
2021-03-01 06:00:00 2.9 12 Nordeste 14 Nordeste 0.2 -- -- 100
2021-03-01 05:00:00 3.9 9 Norte 18 Noroeste 0.8 -- -- 98
2021-03-01 04:00:00 3.8 6 Este 10 Nordeste 0 -- -- 97
2021-03-01 03:00:00 3.9 7 Este 15 Este 0 -- -- 96
2021-03-01 02:00:00 4.4 7 Este 16 Este 0 -- -- 93
2021-03-01 01:00:00 4.8 11 Este 15 Este 0 -- -- 92
2021-03-01 00:00:00 5.2 13 Este 18 Este 0 -- -- 90
2021-02-28 23:00:00 5.6 13 Este 22 Este 0 -- -- 87
2021-02-28 22:00:00 5.5 15 Este 25 Este 0 -- -- 79
2021-02-28 21:00:00 5.3 13 Este 15 Este 0 -- -- 78
2021-02-28 20:00:00 6.5 10 Este 12 Este 0 -- -- 73
2021-02-28 19:00:00 9.4 9 Este 15 Este 0 -- -- 62
2021-02-28 18:00:00 13.5 8 Este 15 Nordeste 0 -- -- 44
2021-02-28 17:00:00 13.8 9 Este 19 Este 0 -- -- 45
2021-02-28 16:00:00 13.7 12 Este 23 Este 0 -- -- 46
2021-02-28 15:00:00 13.2 11 Este 19 Este 0 -- -- 45
2021-02-28 14:00:00 12.2 9 Este 20 Este 0 -- -- 53
2021-02-28 13:00:00 10.4 13 Nordeste 25 Nordeste 0 -- -- 60
2021-02-28 12:00:00 9.1 14 Nordeste 24 Nordeste 0 -- -- 63
2021-02-28 11:00:00 7.5 19 Nordeste 35 Nordeste 0 -- -- 65
2021-02-28 10:00:00 5.1 25 Nordeste 43 Este 0 -- -- 74
2021-02-28 09:00:00 3.5 14 Nordeste 22 Nordeste 0 -- -- 75
2021-02-28 08:00:00 0.8 9 Nordeste 24 Nordeste 0 -- -- 82
2021-02-28 07:00:00 1.5 18 Nordeste 30 Nordeste 0 -- -- 81
2021-02-28 06:00:00 1.8 16 Nordeste 25 Nordeste 0 -- -- 81
2021-02-28 05:00:00 0.7 12 Nordeste 28 Nordeste 0 -- -- 84
2021-02-28 04:00:00 1.9 22 Nordeste 27 Nordeste 0 -- -- 76
2021-02-28 03:00:00 3.2 21 Nordeste 32 Este 0 -- -- 68
2021-02-28 02:00:00 4.2 20 Este 31 Este 0 -- -- 62
2021-02-28 01:00:00 4.5 17 Nordeste 32 Nordeste 0 -- -- 62
2021-02-28 00:00:00 5.8 22 Nordeste 30 Nordeste 0 -- -- 58
2021-02-27 23:00:00 6.9 22 Nordeste 33 Nordeste 0 -- -- 59
2021-02-27 22:00:00 7.7 22 Nordeste 32 Nordeste 0 -- -- 69
2021-02-27 21:00:00 8.3 17 Nordeste 22 Nordeste 0 -- -- 81
2021-02-27 20:00:00 8.7 13 Nordeste 17 Nordeste 0 -- -- 81
2021-02-27 19:00:00 11 12 Nordeste 23 Nordeste 0 -- -- 73
2021-02-27 18:00:00 14.4 18 Nordeste 27 Nordeste 0 -- -- 58
2021-02-27 17:00:00 15.4 19 Nordeste 27 Este 0 -- -- 57
2021-02-27 16:00:00 14.7 19 Nordeste 30 Nordeste 0 -- -- 58
2021-02-27 15:00:00 14.6 21 Nordeste 32 Nordeste 0 -- -- 60
2021-02-27 14:00:00 13.7 19 Nordeste 36 Este 0 -- -- 64
2021-02-27 13:00:00 12.4 21 Este 31 Este 0 -- -- 67
2021-02-27 12:00:00 11.3 24 Nordeste 32 Nordeste 0 -- -- 69
2021-02-27 11:00:00 9.6 23 Nordeste 37 Este 0 -- -- 75
2021-02-27 10:00:00 7 28 Nordeste 37 Nordeste 0 -- -- 87
2021-02-27 09:00:00 4.9 20 Nordeste 28 Nordeste 0 -- -- 95
2021-02-27 08:00:00 4.3 18 Nordeste 25 Nordeste 0 -- -- 96
2021-02-27 07:00:00 4.4 17 Nordeste 30 Nordeste 0 -- -- 97
2021-02-27 06:00:00 4.5 21 Nordeste 27 Nordeste 0 -- -- 97
2021-02-27 05:00:00 4.6 18 Nordeste 25 Nordeste 0 -- -- 96
2021-02-27 04:00:00 4.8 19 Nordeste 24 Nordeste 0 -- -- 97
2021-02-27 03:00:00 5 17 Nordeste 22 Nordeste 0 -- -- 97
2021-02-27 02:00:00 4.9 10 Nordeste 14 Nordeste 0 -- -- 98
2021-02-27 01:00:00 5.2 10 Nordeste 16 Nordeste 0 -- -- 96
2021-02-27 00:00:00 6.3 14 Nordeste 17 Nordeste 0 -- -- 94
2021-02-26 23:00:00 6.9 14 Nordeste 18 Nordeste 0 -- -- 91
2021-02-26 22:00:00 6.8 11 Nordeste 15 Nordeste 0 -- -- 92
2021-02-26 21:00:00 7.8 12 Nordeste 14 Nordeste 0 -- -- 88
2021-02-26 20:00:00 9.1 11 Nordeste 15 Nordeste 0 -- -- 83
2021-02-26 19:00:00 10.4 10 Nordeste 24 Este 0 -- -- 77
2021-02-26 18:00:00 12.9 16 Nordeste 26 Este 0 -- -- 68
2021-02-26 17:00:00 13.5 14 Nordeste 27 Este 0 -- -- 68
2021-02-26 16:00:00 12.5 20 Nordeste 32 Este 0 -- -- 72
2021-02-26 15:00:00 12.2 23 Este 33 Este 0 -- -- 71
2021-02-26 14:00:00 12.4 20 Nordeste 31 Este 0 -- -- 73
2021-02-26 13:00:00 11.6 22 Nordeste 39 Nordeste 0 -- -- 73
2021-02-26 12:00:00 10.7 31 Nordeste 45 Nordeste 0 -- -- 76
2021-02-26 11:00:00 8.9 28 Nordeste 41 Nordeste 0 -- -- 81
2021-02-26 10:00:00 7.1 28 Nordeste 37 Nordeste 0 -- -- 89
2021-02-26 09:00:00 5.8 20 Nordeste 27 Nordeste 0 -- -- 94
2021-02-26 08:00:00 5.1 19 Nordeste 31 Nordeste 0 -- -- 97
2021-02-26 07:00:00 5.5 15 Nordeste 25 Nordeste 0 -- -- 95
2021-02-26 06:00:00 6 19 Nordeste 35 Nordeste 0 -- -- 94
2021-02-26 05:00:00 6.6 25 Nordeste 34 Nordeste 0 -- -- 92
2021-02-26 04:00:00 6.8 18 Nordeste 32 Nordeste 0 -- -- 92
2021-02-26 03:00:00 6.6 22 Nordeste 33 Nordeste 0 -- -- 92
2021-02-26 02:00:00 7 22 Nordeste 34 Nordeste 0 -- -- 90
2021-02-26 01:00:00 7.8 21 Nordeste 30 Nordeste 0 -- -- 86
2021-02-26 00:00:00 8.1 19 Nordeste 30 Nordeste 0 -- -- 88
2021-02-25 23:00:00 8.5 15 Nordeste 23 Nordeste 0 -- -- 86
2021-02-25 22:00:00 8.4 12 Nordeste 16 Nordeste 0 -- -- 88
2021-02-25 21:00:00 8.4 12 Nordeste 15 Nordeste 0 -- -- 89
2021-02-25 20:00:00 8.8 12 Nordeste 15 Nordeste 0 -- -- 87
2021-02-25 19:00:00 9.6 8 Nordeste 13 Nordeste 0 -- -- 85
2021-02-25 18:00:00 11.3 9 Norte 12 Norte 0 -- -- 77
2021-02-25 17:00:00 12.1 6 Norte 10 Norte 0 -- -- 76
2021-02-25 16:00:00 10.1 5 Sur 21 Sur 0 -- -- 81
2021-02-25 15:00:00 9.8 11 Sur 20 Sudeste 0 -- -- 88
2021-02-25 14:00:00 8 11 Sur 18 Sur 0.2 -- -- 96
2021-02-25 13:00:00 8.6 13 Sur 21 Sur 0 -- -- 88
2021-02-25 12:00:00 8.8 11 Sur 23 Sudoeste 0 -- -- 88
2021-02-25 11:00:00 8.5 14 Sur 31 Sudoeste 0 -- -- 88
2021-02-25 10:00:00 8.3 10 Sudoeste 18 Sudoeste 0 -- -- 90
2021-02-25 09:00:00 7.4 9 Sur 12 Sur 0 -- -- 89
2021-02-25 08:00:00 6.4 8 Sudeste 9 Sudeste 0 -- -- 91
2021-02-25 07:00:00 6.9 6 Sur 10 Sur 0 -- -- 88
2021-02-25 06:00:00 6.7 5 Sudeste 6 Sudeste 0 -- -- 89
2021-02-25 05:00:00 6.8 5 Este 12 Nordeste 0 -- -- 90
2021-02-25 04:00:00 7 8 Nordeste 12 Este 0 -- -- 90
2021-02-25 03:00:00 7.6 10 Este 15 Sudeste 0 -- -- 87
2021-02-25 02:00:00 8.5 10 Este 14 Sur 0 -- -- 85
2021-02-25 01:00:00 9.9 12 Sur 22 Sur 0 -- -- 79
2021-02-25 00:00:00 9.8 12 Sudeste 21 Sudeste 0 -- -- 78
2021-02-24 23:00:00 9.7 12 Sur 17 Sur 0 -- -- 78
2021-02-24 22:00:00 9.3 12 Sur 18 Sur 0 -- -- 78
2021-02-24 21:00:00 10.3 10 Sur 24 Sudoeste 0 -- -- 72
2021-02-24 20:00:00 10.3 13 Sur 22 Sur 0 -- -- 70
2021-02-24 19:00:00 11.2 14 Sur 32 Sudoeste 0 -- -- 65
2021-02-24 18:00:00 12.7 22 Sur 41 Sur 0 -- -- 59
2021-02-24 17:00:00 14.2 23 Sur 42 Sur 0 -- -- 55
2021-02-24 16:00:00 15.1 24 Sur 34 Sur 0 -- -- 52
2021-02-24 15:00:00 13.6 19 Sur 39 Sur 0 -- -- 56
2021-02-24 14:00:00 14.2 20 Sur 33 Sur 0 -- -- 52
2021-02-24 13:00:00 14.1 12 Sudeste 21 Sudeste 0 -- -- 46
2021-02-24 12:00:00 12.8 14 Sur 25 Sur 0 -- -- 52
2021-02-24 11:00:00 10.9 6 Este 13 Nordeste 0 -- -- 65
2021-02-24 10:00:00 7.4 8 Este 14 Nordeste 0 -- -- 77
2021-02-24 09:00:00 3.1 13 Nordeste 16 Nordeste 0 -- -- 88
2021-02-24 08:00:00 0.5 13 Este 15 Este 0 -- -- 95
2021-02-24 07:00:00 0.7 13 Nordeste 15 Nordeste 0 -- -- 93
2021-02-24 06:00:00 1.2 8 Nordeste 18 Este 0 -- -- 89
2021-02-24 05:00:00 1.9 13 Este 15 Este 0 -- -- 89
2021-02-24 04:00:00 2.7 9 Este 12 Este 0 -- -- 86
2021-02-24 03:00:00 3 10 Nordeste 12 Nordeste 0 -- -- 82
2021-02-24 02:00:00 2.6 10 Nordeste 11 Nordeste 0 -- -- 84
2021-02-24 01:00:00 4.5 2 Norte 8 Nordeste 0 -- -- 78
2021-02-24 00:00:00 4.6 2 Oeste 15 Sur 0 -- -- 78
2021-02-23 23:00:00 6 10 Sudoeste 14 Sur 0 -- -- 72
2021-02-23 22:00:00 6.7 9 Sudoeste 17 Sudoeste 0 -- -- 64
2021-02-23 21:00:00 7.2 10 Sudoeste 13 Sudoeste 0 -- -- 56
2021-02-23 20:00:00 8.6 11 Sudoeste 18 Sudoeste 0 -- -- 49
2021-02-23 19:00:00 10.7 9 Sur 21 Sudoeste 0 -- -- 49
2021-02-23 18:00:00 13.9 13 Sur 27 Sur 0 -- -- 45
2021-02-23 17:00:00 14.4 15 Sur 29 Sur 0 -- -- 44
2021-02-23 16:00:00 14.2 14 Sur 29 Sur 0 -- -- 44
2021-02-23 15:00:00 13.7 16 Sur 28 Sur 0 -- -- 47
2021-02-23 14:00:00 13.4 15 Sur 26 Sur 0 -- -- 46
2021-02-23 13:00:00 12.4 13 Sudeste 27 Sudeste 0 -- -- 56
2021-02-23 12:00:00 12.1 10 Sur 21 Sur 0 -- -- 58
2021-02-23 11:00:00 10.8 6 Nordeste 12 Nordeste 0 -- -- 63
2021-02-23 10:00:00 6.2 6 Este 10 Nordeste 0 -- -- 73
2021-02-23 09:00:00 1.9 9 Nordeste 12 Nordeste 0 -- -- 81
2021-02-23 08:00:00 -1.1 9 Este 14 Nordeste 0 -- -- 93
2021-02-23 07:00:00 -0.4 8 Este 15 Nordeste 0 -- -- 89
2021-02-23 06:00:00 -0.3 9 Nordeste 10 Nordeste 0 -- -- 84
2021-02-23 05:00:00 1.8 4 Sur 6 Este 0 -- -- 90
2021-02-23 04:00:00 2.4 6 Sudoeste 9 Sudoeste 0 -- -- 83
2021-02-23 03:00:00 1.8 7 Sur 16 Sudeste 0 -- -- 76
2021-02-23 02:00:00 1.8 12 Sudeste 15 Sudeste 0 -- -- 74
2021-02-23 01:00:00 3.2 5 Sudeste 13 Sudeste 0 -- -- 60
2021-02-23 00:00:00 2.9 8 Sudeste 13 Sudeste 0 -- -- 67
2021-02-22 23:00:00 4.4 8 Sudeste 10 Sudeste 0 -- -- 60
2021-02-22 22:00:00 4.5 4 Sur 8 Sudoeste 0 -- -- 57
2021-02-22 21:00:00 5.4 7 Sudoeste 8 Sudoeste 0 -- -- 53
2021-02-22 20:00:00 5.5 6 Sudoeste 9 Sudoeste 0 -- -- 48
2021-02-22 19:00:00 7.7 7 Sudoeste 18 Sudoeste 0 -- -- 45
2021-02-22 18:00:00 10.4 14 Sudoeste 20 Sudoeste 0 -- -- 35
2021-02-22 17:00:00 11.5 12 Sudoeste 22 Sudoeste 0 -- -- 37
2021-02-22 16:00:00 11.3 11 Sudoeste 26 Sudoeste 0 -- -- 41
2021-02-22 15:00:00 11.1 11 Sudoeste 22 Sudoeste 0 -- -- 43
2021-02-22 14:00:00 10.7 9 Sudoeste 17 Sudoeste 0 -- -- 42
2021-02-22 13:00:00 10.1 8 Sur 18 Oeste 0 -- -- 38
2021-02-22 12:00:00 10.5 5 Norte 11 Sudoeste 0 -- -- 51
2021-02-22 11:00:00 5.6 7 Sudoeste 12 Sudoeste 0 -- -- 76
2021-02-22 10:00:00 2.9 6 Sudoeste 13 Oeste 0 -- -- 89
2021-02-22 09:00:00 -0.1 12 Sudoeste 15 Sudoeste 0 -- -- 100
2021-02-22 08:00:00 -1.5 13 Sudoeste 17 Sudoeste 0 -- -- 100
2021-02-22 07:00:00 -0.8 12 Sudoeste 17 Oeste 0 -- -- 100
2021-02-22 06:00:00 -0.7 13 Sudoeste 15 Sudoeste 0 -- -- 99
2021-02-22 05:00:00 -0.6 10 Sudoeste 14 Oeste 0 -- -- 97
2021-02-22 04:00:00 0.2 8 Oeste 14 Sudoeste 0 -- -- 98
2021-02-22 03:00:00 0.9 10 Oeste 17 Sudoeste 0 -- -- 98
2021-02-22 02:00:00 0.9 13 Sudoeste 18 Sudoeste 0 -- -- 99
2021-02-22 01:00:00 2.1 13 Sudoeste 17 Oeste 0 -- -- 92
2021-02-22 00:00:00 2.5 11 Oeste 18 Oeste 0 -- -- 91
2021-02-21 23:00:00 2.9 8 Sudoeste 21 Oeste 0 -- -- 89
2021-02-21 22:00:00 3.8 14 Oeste 23 Oeste 0 -- -- 86
2021-02-21 21:00:00 4.1 9 Oeste 20 Oeste 0 -- -- 83
2021-02-21 20:00:00 4.7 13 Oeste 23 Oeste 0 -- -- 82
2021-02-21 19:00:00 5.4 14 Oeste 20 Oeste 0 -- -- 93
2021-02-21 18:00:00 6 9 Noroeste 30 Oeste 0 -- -- 84
2021-02-21 17:00:00 6.1 21 Oeste 33 Oeste 0.2 -- -- 83
2021-02-21 16:00:00 5.1 17 Sudoeste 28 Sudoeste 0 -- -- 95
2021-02-21 15:00:00 6.1 13 Sudoeste 19 Sudoeste 0 -- -- 90
2021-02-21 14:00:00 6.4 7 Oeste 14 Sudoeste 0 -- -- 88
2021-02-21 13:00:00 5.4 7 Sur 14 Sudoeste 0 -- -- 95
2021-02-21 12:00:00 4.8 9 Oeste 26 Sudoeste 0 -- -- 97
2021-02-21 11:00:00 4.4 17 Sudoeste 39 Sur 0.4 -- -- 99
2021-02-21 10:00:00 6.2 19 Sudoeste 37 Sur 0.6 -- -- 98
2021-02-21 09:00:00 7.1 23 Sur 44 Sudeste 0.4 -- -- 91
2021-02-21 08:00:00 8.1 29 Sur 58 Sur 0.2 -- -- 81
2021-02-21 07:00:00 9.8 31 Sudeste 46 Sudeste 0 -- -- 61
2021-02-21 06:00:00 8.9 13 Sur 28 Sur 0 -- -- 59
2021-02-21 05:00:00 8.2 14 Sudeste 24 Este 0.2 -- -- 60
2021-02-21 04:00:00 6.6 15 Este 19 Este 0 -- -- 72
2021-02-21 03:00:00 7.1 17 Este 22 Este 0 -- -- 68
2021-02-21 02:00:00 6.4 11 Este 15 Este 0 -- -- 76
2021-02-21 01:00:00 6.5 13 Nordeste 16 Este 0 -- -- 79
2021-02-21 00:00:00 7.4 12 Sudeste 17 Sudeste 0 -- -- 73
2021-02-20 23:00:00 7.1 13 Sudeste 18 Sudeste 0 -- -- 78
2021-02-20 22:00:00 6.7 11 Sudeste 17 Sudeste 0 -- -- 87
2021-02-20 21:00:00 7 9 Este 13 Nordeste 0 -- -- 90
2021-02-20 20:00:00 7.3 2 Sudeste 20 Sur 0 -- -- 90
2021-02-20 19:00:00 7.7 13 Sur 22 Sur 1.4 -- -- 90
2021-02-20 18:00:00 7.9 8 Sur 18 Sur 0.2 -- -- 92
2021-02-20 17:00:00 7.6 11 Sur 29 Sur 1.4 -- -- 96
2021-02-20 16:00:00 8.1 19 Sur 32 Sur 1.2 -- -- 93
2021-02-20 15:00:00 8.2 19 Sur 38 Sur 0.4 -- -- 90
2021-02-20 14:00:00 8.1 22 Sur 51 Sur 0.4 -- -- 88
2021-02-20 13:00:00 8.9 29 Sur 60 Sur 0 -- -- 78
2021-02-20 12:00:00 9.3 45 Sur 66 Sur 0 -- -- 72
2021-02-20 11:00:00 9.6 43 Sur 62 Sur 0 -- -- 71
2021-02-20 10:00:00 8.2 43 Sur 61 Sur 0 -- -- 80
2021-02-20 09:00:00 7.1 33 Sur 48 Sur 0 -- -- 84
2021-02-20 08:00:00 6.9 26 Sur 44 Sur 0 -- -- 86
2021-02-20 07:00:00 7.3 30 Sur 46 Sur 0 -- -- 82
2021-02-20 06:00:00 7.3 24 Sur 43 Sur 0 -- -- 82
2021-02-20 05:00:00 7.3 34 Sur 52 Sur 0 -- -- 84
2021-02-20 04:00:00 7.7 28 Sur 58 Sur 0 -- -- 86
2021-02-20 03:00:00 8 18 Sudoeste 41 Sur 0 -- -- 87
2021-02-20 02:00:00 8.3 17 Sudoeste 34 Sur 0 -- -- 89
2021-02-20 01:00:00 8.1 24 Sur 42 Sur 0 -- -- 89
2021-02-20 00:00:00 8.2 24 Sur 37 Sur 0 -- -- 89
2021-02-19 23:00:00 8.8 27 Sur 37 Sur 0 -- -- 85
2021-02-19 22:00:00 8.7 18 Sur 35 Sur 0 -- -- 83
2021-02-19 21:00:00 9 25 Sur 37 Sur 0 -- -- 80
2021-02-19 20:00:00 9.5 24 Sur 40 Sur 0 -- -- 74
2021-02-19 19:00:00 10 26 Sur 37 Sur 0 -- -- 69
2021-02-19 18:00:00 10.4 23 Sur 49 Sur 0 -- -- 63
2021-02-19 17:00:00 11.4 28 Sur 48 Sur 0 -- -- 60
2021-02-19 16:00:00 11.1 25 Sudoeste 56 Sudoeste 0 -- -- 61
2021-02-19 15:00:00 11.2 24 Sudoeste 42 Sur 0 -- -- 66
2021-02-19 14:00:00 11.1 30 Sur 50 Sur 0 -- -- 63
2021-02-19 13:00:00 10.6 15 Sudoeste 41 Sudoeste 0 -- -- 71
2021-02-19 12:00:00 10 25 Sur 41 Sur 0 -- -- 71
2021-02-19 11:00:00 9.7 17 Sur 33 Sur 0 -- -- 81
2021-02-19 10:00:00 7.7 18 Sur 32 Sur 0 -- -- 96
2021-02-19 09:00:00 7 19 Sur 31 Sudoeste 0 -- -- 100
2021-02-19 08:00:00 7.5 15 Sur 27 Sur 0.2 -- -- 100
2021-02-19 07:00:00 7.8 16 Sur 27 Sur 0 -- -- 100
2021-02-19 06:00:00 7.6 17 Sur 28 Sudoeste 0 -- -- 100
2021-02-19 05:00:00 7.4 15 Sudoeste 25 Sur 0 -- -- 100
2021-02-19 04:00:00 7.3 13 Sur 23 Sur 0 -- -- 100
2021-02-19 03:00:00 7.2 13 Sudoeste 21 Sudoeste 0 -- -- 100
2021-02-19 02:00:00 7.1 11 Sudoeste 24 Sudoeste 0 -- -- 100
2021-02-19 01:00:00 6.4 9 Sudoeste 24 Sudoeste 0 -- -- 100
2021-02-19 00:00:00 7.3 14 Sudoeste 31 Sudoeste 0 -- -- 99
2021-02-18 23:00:00 7.5 18 Sudoeste 32 Sudoeste 0 -- -- 99
2021-02-18 22:00:00 7.7 13 Sur 22 Sur 0 -- -- 100
2021-02-18 21:00:00 8 11 Sudoeste 24 Sudoeste 0 -- -- 100
2021-02-18 20:00:00 8.2 20 Sudoeste 34 Sudoeste 0 -- -- 98
2021-02-18 19:00:00 8.2 18 Sudoeste 29 Sudoeste 0 -- -- 98
2021-02-18 18:00:00 8.6 17 Sudoeste 33 Sudoeste 0.6 -- -- 100
2021-02-18 17:00:00 8.4 19 Sudoeste 39 Sudoeste 0.6 -- -- 99
2021-02-18 16:00:00 9.2 22 Sudoeste 39 Sudoeste 2.6 -- -- 97
2021-02-18 15:00:00 9.9 23 Sudoeste 46 Sudoeste 0.2 -- -- 92
2021-02-18 14:00:00 8.6 27 Sudoeste 45 Sudoeste 0.4 -- -- 98
2021-02-18 13:00:00 7.8 21 Sudoeste 46 Sudoeste 0.2 -- -- 99
2021-02-18 12:00:00 7.3 29 Sudoeste 50 Sudoeste 1.8 -- -- 99
2021-02-18 11:00:00 7.1 22 Sudoeste 46 Sur 1 -- -- 100
2021-02-18 10:00:00 6.6 24 Sur 40 Sur 0.8 -- -- 100
2021-02-18 09:00:00 6.4 17 Sudoeste 38 Sur 1.2 -- -- 100
2021-02-18 08:00:00 6.7 25 Sur 43 Sur 0 -- -- 97
2021-02-18 07:00:00 6.9 21 Sur 40 Sudoeste 0 -- -- 97
2021-02-18 06:00:00 7.2 23 Sur 42 Sudoeste 0 -- -- 97
2021-02-18 05:00:00 7.4 22 Sur 40 Sudoeste 0 -- -- 98
2021-02-18 04:00:00 7.7 23 Sur 41 Sur 0 -- -- 97
2021-02-18 03:00:00 7.5 19 Sudoeste 33 Sur 0 -- -- 96
2021-02-18 02:00:00 7.9 18 Sur 36 Sur 0 -- -- 94
2021-02-18 01:00:00 8.9 20 Sudoeste 35 Sur 0 -- -- 95
2021-02-18 00:00:00 9 18 Sudoeste 28 Sudoeste 0 -- -- 97
2021-02-17 23:00:00 9 15 Sudoeste 36 Sur 0 -- -- 95
2021-02-17 22:00:00 9.1 20 Sur 37 Sur 0 -- -- 92
2021-02-17 21:00:00 9.4 23 Sur 41 Sur 0 -- -- 91
2021-02-17 20:00:00 9.5 19 Sur 32 Sudoeste 0 -- -- 92
2021-02-17 19:00:00 9.6 15 Sur 26 Sudoeste 0 -- -- 96
2021-02-17 18:00:00 9.9 15 Sur 24 Sudoeste 0 -- -- 96
2021-02-17 17:00:00 10.4 19 Sur 29 Sudoeste 0.4 -- -- 95
2021-02-17 16:00:00 9.6 18 Sudoeste 26 Sudoeste 0.6 -- -- 97
2021-02-17 15:00:00 9.6 14 Sudoeste 28 Sudoeste 0.4 -- -- 98
2021-02-17 14:00:00 9.9 19 Sudoeste 35 Sudoeste 0 -- -- 90
2021-02-17 13:00:00 10.2 23 Sudoeste 33 Sudoeste 0 -- -- 91
2021-02-17 12:00:00 9.1 17 Sudoeste 31 Sudoeste 0 -- -- 99
2021-02-17 11:00:00 8.3 14 Sudoeste 25 Sudoeste 0 -- -- 100
2021-02-17 10:00:00 7.7 15 Sudoeste 23 Sur 0 -- -- 100
2021-02-17 09:00:00 7.5 10 Sur 21 Sur 0 -- -- 100
2021-02-17 08:00:00 7.3 13 Sudoeste 19 Sudoeste 0 -- -- 100
2021-02-17 07:00:00 7.2 11 Sudoeste 19 Sudoeste 0 -- -- 100
2021-02-17 06:00:00 7.2 10 Sur 15 Sur 0 -- -- 100
2021-02-17 05:00:00 7.2 8 Sudoeste 17 Sudoeste 0 -- -- 100
2021-02-17 04:00:00 7.1 10 Sudoeste 17 Sur 0 -- -- 100
2021-02-17 03:00:00 7.3 7 Sudoeste 14 Sudoeste 0.2 -- -- 100
2021-02-17 02:00:00 7.3 8 Sudoeste 12 Sudoeste 0.2 -- -- 100
2021-02-17 01:00:00 7.3 8 Sudoeste 13 Sudoeste 0.2 -- -- 100
2021-02-17 00:00:00 7.8 9 Sudoeste 14 Sudoeste 0.2 -- -- 100
2021-02-16 23:00:00 7.9 6 Sudoeste 10 Sudoeste 0.2 -- -- 100
2021-02-16 22:00:00 7.9 6 Sudoeste 13 Sur 0.8 -- -- 100
2021-02-16 21:00:00 8.1 9 Sudoeste 17 Sudoeste 0 -- -- 100
2021-02-16 20:00:00 8.1 13 Sudoeste 20 Sudoeste 0 -- -- 100
2021-02-16 19:00:00 8.4 17 Sudoeste 27 Sudoeste 0 -- -- 99
2021-02-16 18:00:00 8.9 19 Sudoeste 27 Sudoeste 0 -- -- 98
2021-02-16 17:00:00 9.1 16 Sudoeste 32 Sudoeste 1.6 -- -- 98
2021-02-16 16:00:00 8.5 21 Sudoeste 37 Sudoeste 1.2 -- -- 99
2021-02-16 15:00:00 8.9 23 Sudoeste 45 Sudoeste 0 -- -- 96
2021-02-16 14:00:00 10.2 27 Sudoeste 46 Sudoeste 0 -- -- 86
2021-02-16 13:00:00 9.4 25 Sudoeste 48 Sudoeste 0 -- -- 91
2021-02-16 12:00:00 9.3 31 Sudoeste 50 Sudoeste 0 -- -- 83
2021-02-16 11:00:00 8.8 30 Sudoeste 48 Sudoeste 0 -- -- 83
2021-02-16 10:00:00 8.3 23 Sudoeste 44 Sudoeste 0 -- -- 85
2021-02-16 09:00:00 6.6 18 Sur 32 Sudoeste 0 -- -- 91
2021-02-16 08:00:00 6.6 15 Sudoeste 32 Sudoeste 0 -- -- 90
2021-02-16 07:00:00 7.4 19 Sudoeste 33 Sudoeste 0 -- -- 83
2021-02-16 06:00:00 7.4 15 Sudoeste 24 Sudoeste 0 -- -- 83
2021-02-16 05:00:00 7.1 12 Sudoeste 18 Sudoeste 0 -- -- 83
2021-02-16 04:00:00 8.3 14 Sudoeste 22 Sur 0 -- -- 79
2021-02-16 03:00:00 8.7 14 Sudoeste 24 Sudoeste 0 -- -- 80
2021-02-16 02:00:00 9.3 17 Sudoeste 35 Sur 0 -- -- 76
2021-02-16 01:00:00 9.2 19 Sudoeste 33 Sur 0 -- -- 77
2021-02-16 00:00:00 9.6 21 Sudoeste 39 Sur 0 -- -- 74
2021-02-15 23:00:00 9.6 23 Sudoeste 36 Sur 0 -- -- 73
2021-02-15 22:00:00 10 22 Sudoeste 32 Sudoeste 0 -- -- 69
2021-02-15 21:00:00 9.1 12 Sudoeste 22 Sur 0 -- -- 72
2021-02-15 20:00:00 10.4 13 Sur 21 Sudoeste 0 -- -- 68
2021-02-15 19:00:00 11.9 12 Sur 27 Sur 0 -- -- 66
2021-02-15 18:00:00 15.4 13 Sur 26 Sur 0 -- -- 58
2021-02-15 17:00:00 16.3 14 Sur 21 Sudeste 0 -- -- 51
2021-02-15 16:00:00 16.8 10 Sudeste 20 Sur 0 -- -- 48
2021-02-15 15:00:00 16 13 Sur 21 Sur 0 -- -- 45
2021-02-15 14:00:00 16.1 10 Sudeste 22 Este 0 -- -- 48
2021-02-15 13:00:00 15.3 10 Este 18 Este 0 -- -- 54
2021-02-15 12:00:00 13.6 10 Nordeste 18 Nordeste 0 -- -- 64
2021-02-15 11:00:00 10.1 12 Nordeste 15 Nordeste 0 -- -- 78
2021-02-15 10:00:00 7.6 10 Nordeste 13 Este 0 -- -- 87
2021-02-15 09:00:00 5.4 10 Este 14 Este 0 -- -- 96
2021-02-15 08:00:00 2.7 9 Este 12 Este 0 -- -- 100
2021-02-15 07:00:00 4.4 9 Este 11 Este 0 -- -- 98
2021-02-15 06:00:00 5.2 3 Nordeste 7 Norte 0 -- -- 93
2021-02-15 05:00:00 6.2 0 Calma 10 Sudoeste 0 -- -- 93
2021-02-15 04:00:00 6.8 9 Sudoeste 22 Sudoeste 0 -- -- 89
2021-02-15 03:00:00 8.1 15 Sudoeste 22 Sudoeste 0 -- -- 84
2021-02-15 02:00:00 8.5 15 Sudoeste 26 Sudoeste 0 -- -- 83
2021-02-15 01:00:00 8.8 18 Sudoeste 29 Sudoeste 0 -- -- 83
2021-02-15 00:00:00 8.6 16 Sudoeste 27 Sudoeste 0 -- -- 86
2021-02-14 23:00:00 9.2 17 Sudoeste 28 Sudoeste 0 -- -- 82
2021-02-14 22:00:00 9.2 14 Sudoeste 21 Sudoeste 0 -- -- 81
2021-02-14 21:00:00 8.2 8 Sur 16 Sur 0 -- -- 83
2021-02-14 20:00:00 9.8 12 Sur 18 Sur 0 -- -- 77
2021-02-14 19:00:00 11.7 9 Sur 17 Sur 0 -- -- 65
2021-02-14 18:00:00 14.5 10 Sudoeste 24 Sur 0 -- -- 60
2021-02-14 17:00:00 16.3 17 Sur 28 Sudoeste 0 -- -- 53
2021-02-14 16:00:00 16.3 18 Sur 31 Sur 0 -- -- 56
2021-02-14 15:00:00 16.1 18 Sur 28 Sudoeste 0 -- -- 56
2021-02-14 14:00:00 15.2 11 Sudoeste 21 Sur 0 -- -- 61
2021-02-14 13:00:00 14.2 9 Sur 17 Este 0 -- -- 63
2021-02-14 12:00:00 11.2 9 Nordeste 12 Nordeste 0 -- -- 84
2021-02-14 11:00:00 7.6 9 Nordeste 12 Este 0 -- -- 98
2021-02-14 10:00:00 5.4 5 Nordeste 10 Nordeste 0 -- -- 100
2021-02-14 09:00:00 1.8 8 Nordeste 10 Este 0 -- -- 100
2021-02-14 08:00:00 2.2 8 Este 13 Nordeste 0 -- -- 100
2021-02-14 07:00:00 2.8 8 Nordeste 11 Nordeste 0 -- -- 100
2021-02-14 06:00:00 3.4 4 Nordeste 7 Nordeste 0 -- -- 100
2021-02-14 05:00:00 3 0 Calma 3 Este 0 -- -- 100
2021-02-14 04:00:00 5.7 3 Sur 4 Sudoeste 0 -- -- 100
2021-02-14 03:00:00 6 0 Calma -- -- 0 -- -- 100
2021-02-14 02:00:00 5.8 2 Sudoeste 4 Oeste 0 -- -- 100
2021-02-14 01:00:00 5.5 2 Sur 6 Noroeste 0 -- -- 100
2021-02-14 00:00:00 4.5 4 Oeste 6 Oeste 0 -- -- 100
2021-02-13 23:00:00 5.8 3 Sudeste 4 Sudeste 0 -- -- 100
2021-02-13 22:00:00 5.9 0 Calma 8 Oeste 0 -- -- 100
2021-02-13 21:00:00 7.7 6 Sudoeste 10 Sudoeste 0 -- -- 95
2021-02-13 20:00:00 7.6 10 Sudoeste 16 Sudoeste 0 -- -- 94
2021-02-13 19:00:00 9.2 12 Sudoeste 27 Oeste 0 -- -- 89
2021-02-13 18:00:00 11.5 19 Sudoeste 27 Oeste 0 -- -- 79
2021-02-13 17:00:00 11.4 18 Sudoeste 25 Sudoeste 0 -- -- 79
2021-02-13 16:00:00 11.9 18 Sudoeste 27 Sudoeste 0 -- -- 76
2021-02-13 15:00:00 14 15 Oeste 24 Sudoeste 0 -- -- 67
2021-02-13 14:00:00 10.5 17 Sudoeste 27 Sudoeste 0 -- -- 80
2021-02-13 13:00:00 10.9 13 Sudoeste 20 Sudoeste 0 -- -- 76
2021-02-13 08:00:00 -- -- -- -- -- -- -- -- --
2021-02-13 07:00:00 4.2 9 Oeste 19 Sudoeste 0 -- -- 100
2021-02-13 06:00:00 4.6 10 Oeste 16 Oeste 0 -- -- 100
2021-02-13 05:00:00 4 10 Sudoeste 16 Sudoeste 0 -- -- 100
2021-02-13 04:00:00 4.6 12 Oeste 16 Sudoeste 0 -- -- 100
2021-02-13 03:00:00 4.3 9 Sudoeste 13 Sudoeste 0 -- -- 99
2021-02-13 02:00:00 4.2 0 Calma 10 Sudoeste 0 -- -- 97
2021-02-13 01:00:00 4.4 3 Sur 15 Sudoeste 0 -- -- 97
2021-02-13 00:00:00 5.4 7 Sudoeste 12 Sudoeste 0 -- -- 90
2021-02-12 23:00:00 6 10 Sudoeste 13 Sudoeste 0 -- -- 89
2021-02-12 22:00:00 6.5 9 Sur 18 Sur 0 -- -- 87
2021-02-12 21:00:00 7.2 6 Sudoeste 13 Sur 0 -- -- 83
2021-02-12 20:00:00 7.4 5 Sur 15 Oeste 0 -- -- 84
2021-02-12 19:00:00 8.4 5 Sudoeste 16 Oeste 0 -- -- 81
2021-02-12 18:00:00 10.6 14 Oeste 26 Oeste 0 -- -- 70
2021-02-12 17:00:00 12.7 18 Oeste 33 Oeste 0 -- -- 60
2021-02-12 16:00:00 12.5 19 Oeste 35 Oeste 0 -- -- 59
2021-02-12 15:00:00 10.6 20 Oeste 34 Oeste 0 -- -- 70
2021-02-12 14:00:00 10.7 21 Oeste 38 Oeste 0 -- -- 73
2021-02-12 13:00:00 9.3 22 Oeste 37 Sudoeste 0 -- -- 79
2021-02-12 12:00:00 9.5 21 Oeste 35 Sudoeste 0 -- -- 82
2021-02-12 11:00:00 7.1 21 Sudoeste 31 Sudoeste 0 -- -- 96
2021-02-12 10:00:00 6.8 15 Sudoeste 30 Sudoeste 0 -- -- 95
2021-02-12 09:00:00 6.2 20 Sudoeste 30 Oeste 0 -- -- 98
2021-02-12 08:00:00 6.4 15 Sudoeste 34 Oeste 0 -- -- 98
2021-02-12 07:00:00 6.2 26 Sudoeste 40 Oeste 0 -- -- 99
2021-02-12 06:00:00 6.9 19 Sudoeste 32 Sudoeste 0 -- -- 100
2021-02-12 05:00:00 7.7 24 Sudoeste 46 Sudoeste 0.2 -- -- 100
2021-02-12 04:00:00 8.2 24 Sudoeste 40 Sudoeste 0.2 -- -- 100
2021-02-12 03:00:00 8.7 22 Sudoeste 37 Sudoeste 0.6 -- -- 100
2021-02-12 02:00:00 9 24 Sudoeste 51 Sudoeste 2.6 -- -- 100
2021-02-12 01:00:00 9.5 23 Sudoeste 49 Sudoeste 1.2 -- -- 100
2021-02-12 00:00:00 9.9 33 Sudoeste 53 Sur 0.8 -- -- 100
2021-02-11 23:00:00 9.9 21 Sur 38 Sudoeste 0 -- -- 100
2021-02-11 22:00:00 10 22 Sur 39 Sur 0.2 -- -- 100
2021-02-11 21:00:00 10.2 21 Sudoeste 32 Sudoeste 1.2 -- -- 100
2021-02-11 20:00:00 10.2 13 Sudoeste 24 Sudoeste 0.8 -- -- 100
2021-02-11 19:00:00 10.2 16 Sudoeste 33 Sudoeste 0.4 -- -- 99
2021-02-11 18:00:00 11.9 19 Sudoeste 36 Sur 0 -- -- 85
2021-02-11 17:00:00 12.4 19 Sudoeste 32 Sur 0 -- -- 85
2021-02-11 16:00:00 12.4 12 Sur 26 Sudoeste 0 -- -- 92
2021-02-11 15:00:00 12.7 18 Sudoeste 35 Sudoeste 0 -- -- 89
2021-02-11 14:00:00 11.4 19 Sudoeste 35 Sudoeste 0 -- -- 94
2021-02-11 13:00:00 10.7 18 Sudoeste 30 Sudoeste 0.2 -- -- 100
2021-02-11 12:00:00 9.7 10 Sudoeste 17 Sudoeste 0.2 -- -- 100
2021-02-11 11:00:00 8.8 9 Sudoeste 12 Sudoeste 0.4 -- -- 100
2021-02-11 10:00:00 8.5 6 Oeste 14 Sudoeste 0 -- -- 100
2021-02-11 09:00:00 8.1 8 Oeste 14 Sudoeste 0 -- -- 100
2021-02-11 08:00:00 8.1 10 Sudoeste 15 Sudoeste 0 -- -- 100
2021-02-11 07:00:00 7.8 9 Oeste 21 Sudoeste 0 -- -- 100
2021-02-11 06:00:00 8.1 15 Sudoeste 22 Sudoeste 0 -- -- 100
2021-02-11 05:00:00 7.3 14 Sudoeste 22 Sudoeste 0 -- -- 100
2021-02-11 04:00:00 6 5 Sudoeste 8 Sudoeste 0 -- -- 100
2021-02-11 03:00:00 5.8 4 Oeste 13 Sudoeste 0 -- -- 100
2021-02-11 02:00:00 5.6 8 Sudoeste 15 Sudoeste 0 -- -- 100
2021-02-11 01:00:00 5.4 7 Sudoeste 17 Sudoeste 0.2 -- -- 100
2021-02-11 00:00:00 5.3 14 Sudoeste 22 Sudoeste 0 -- -- 99
2021-02-10 23:00:00 5.9 10 Sudoeste 18 Sudoeste 0 -- -- 95
2021-02-10 22:00:00 6.4 11 Sudoeste 25 Oeste 0 -- -- 93
2021-02-10 21:00:00 6.4 11 Sudoeste 17 Sudoeste 0 -- -- 87
2021-02-10 20:00:00 6.9 9 Sudoeste 16 Sudoeste 0 -- -- 79
2021-02-10 19:00:00 6.9 9 Sudoeste 16 Sudoeste 0 -- -- 78
2021-02-10 18:00:00 7.8 14 Sudoeste 27 Sudoeste 0 -- -- 74
2021-02-10 17:00:00 9.1 17 Sudoeste 34 Sudoeste 0 -- -- 71
2021-02-10 16:00:00 9.6 20 Oeste 36 Sudoeste 0 -- -- 59
2021-02-10 15:00:00 9.3 26 Sudoeste 37 Sudoeste 0 -- -- 64
2021-02-10 14:00:00 9 24 Sudoeste 40 Sudoeste 0 -- -- 68
2021-02-10 13:00:00 8.1 24 Sudoeste 44 Sudoeste 0 -- -- 70
2021-02-10 12:00:00 6.5 32 Oeste 45 Sudoeste 0 -- -- 79
2021-02-10 11:00:00 6.1 26 Oeste 37 Sudoeste 0 -- -- 77
2021-02-10 10:00:00 4.5 24 Oeste 42 Sudoeste 0 -- -- 89
2021-02-10 09:00:00 3.1 13 Sudoeste 30 Sudoeste 0 -- -- 95
2021-02-10 08:00:00 3.2 12 Sudoeste 32 Oeste 0 -- -- 99
2021-02-10 07:00:00 3.6 17 Oeste 37 Oeste 0 -- -- 99
2021-02-10 06:00:00 3.3 16 Sudoeste 36 Oeste 0 -- -- 98
2021-02-10 05:00:00 3.7 22 Oeste 37 Sudoeste 0.2 -- -- 100
2021-02-10 04:00:00 3.5 15 Sudoeste 28 Sudoeste 0 -- -- 100
2021-02-10 03:00:00 3.6 21 Sudoeste 46 Oeste 0.2 -- -- 100
2021-02-10 02:00:00 3.9 34 Sudoeste 71 Sudoeste 2.4 -- -- 98
2021-02-10 01:00:00 3.8 26 Sudoeste 41 Sudoeste 2.2 -- -- 100
2021-02-10 00:00:00 3.6 13 Sudoeste 36 Sudoeste 2.2 -- -- 100
2021-02-09 23:00:00 3.6 23 Sudoeste 45 Sudoeste 0.4 -- -- 100
2021-02-09 22:00:00 3.7 31 Sudoeste 54 Sudoeste 0.8 -- -- 99
2021-02-09 21:00:00 3.8 28 Sudoeste 45 Sudoeste 0 -- -- 100
2021-02-09 20:00:00 3.5 18 Sudoeste 38 Oeste 0.4 -- -- 100
2021-02-09 19:00:00 3.3 26 Sudoeste 48 Sudoeste 2 -- -- 100
2021-02-09 18:00:00 2.9 12 Sur 23 Sudoeste 0 -- -- 100
2021-02-09 17:00:00 2.5 17 Sudoeste 39 Sudoeste 1.6 -- -- 100
2021-02-09 16:00:00 2.2 22 Sudoeste 47 Sudoeste 2.6 -- -- 100
2021-02-09 15:00:00 4 26 Sudoeste 41 Sudoeste 0 -- -- 96
2021-02-09 14:00:00 3.7 21 Sudoeste 33 Sudoeste 0 -- -- 97
2021-02-09 13:00:00 3 17 Sudoeste 34 Oeste 1.2 -- -- 100
2021-02-09 12:00:00 2.6 23 Oeste 42 Oeste 2.6 -- -- 98
2021-02-09 11:00:00 4.9 31 Oeste 62 Sudoeste 6 -- -- 97
2021-02-09 10:00:00 5.8 28 Sudoeste 64 Sur 3.4 -- -- 100
2021-02-09 09:00:00 5.9 36 Sur 66 Sudoeste 2.2 -- -- 100
2021-02-09 08:00:00 5.8 30 Sur 55 Sur 3 -- -- 100
2021-02-09 07:00:00 5.7 31 Sur 51 Sur 2.2 -- -- 100
2021-02-09 06:00:00 5.4 30 Sur 50 Sur 1 -- -- 100
2021-02-09 05:00:00 5 24 Sudoeste 45 Sudoeste 0.8 -- -- 100
2021-02-09 04:00:00 4.5 24 Sudoeste 44 Sudoeste 0.4 -- -- 100
2021-02-09 03:00:00 4.2 25 Sur 38 Sudoeste 1 -- -- 100
2021-02-09 02:00:00 4.2 18 Sudoeste 36 Sudoeste 0.8 -- -- 100
2021-02-09 01:00:00 4.3 22 Sudoeste 42 Sudoeste 0.6 -- -- 99
2021-02-09 00:00:00 4.6 25 Sudoeste 40 Sudoeste 0 -- -- 100
2021-02-08 23:00:00 4.8 23 Sudoeste 41 Sudoeste 0.2 -- -- 100
2021-02-08 22:00:00 5.1 19 Sudoeste 39 Sur 0.4 -- -- 100
2021-02-08 21:00:00 5.3 17 Sudoeste 38 Sudoeste 0 -- -- 100
2021-02-08 20:00:00 5.5 17 Sudoeste 31 Sudoeste 0.2 -- -- 100
2021-02-08 19:00:00 5.4 17 Oeste 25 Oeste 0.2 -- -- 99
2021-02-08 18:00:00 5.4 9 Sudoeste 33 Oeste 0.4 -- -- 100
2021-02-08 17:00:00 5.5 27 Oeste 39 Oeste 0.4 -- -- 99
2021-02-08 16:00:00 5.1 24 Sudoeste 39 Sudoeste 0.2 -- -- 98
2021-02-08 15:00:00 4.1 27 Sudoeste 54 Sudoeste 1.2 -- -- 100
2021-02-08 14:00:00 4.3 33 Sudoeste 50 Sudoeste 2.4 -- -- 98
2021-02-08 13:00:00 5 25 Sudoeste 42 Sudoeste 0.6 -- -- 99
2021-02-08 12:00:00 4.8 19 Sudoeste 39 Oeste 0.2 -- -- 100
2021-02-08 11:00:00 4.5 24 Sudoeste 38 Sudoeste 0.2 -- -- 100
2021-02-08 10:00:00 4 19 Sudoeste 34 Sudoeste 0 -- -- 100
2021-02-08 09:00:00 3.6 20 Sudoeste 37 Sudoeste 0.2 -- -- 100
2021-02-08 08:00:00 3.6 16 Sudoeste 38 Oeste 1.6 -- -- 100
2021-02-08 07:00:00 4.1 18 Sudoeste 30 Sudoeste 0 -- -- 100
2021-02-08 06:00:00 3.8 21 Sudoeste 35 Sudoeste 0.2 -- -- 100
2021-02-08 05:00:00 4.6 26 Sudoeste 39 Sudoeste 0 -- -- 100
2021-02-08 04:00:00 5.2 21 Sudoeste 35 Sudoeste 0 -- -- 100
2021-02-08 03:00:00 5.1 22 Sudoeste 41 Oeste 0.4 -- -- 100
2021-02-08 02:00:00 5.8 31 Sudoeste 53 Sudoeste 3 -- -- 100
2021-02-08 01:00:00 5.7 19 Sudoeste 52 Sudoeste 0.6 -- -- 100
2021-02-08 00:00:00 5.4 21 Sur 38 Sur 2.6 -- -- 100
2021-02-07 23:00:00 5 21 Sur 33 Sur 1.8 -- -- 100
2021-02-07 22:00:00 4.5 18 Sudoeste 41 Sudoeste 0.4 -- -- 100
2021-02-07 21:00:00 4.2 22 Sudoeste 38 Sur 0 -- -- 100
2021-02-07 20:00:00 3.5 15 Sur 27 Sudoeste 0.2 -- -- 100
2021-02-07 19:00:00 3.1 19 Sudoeste 32 Sudoeste 0 -- -- 100
2021-02-07 18:00:00 2.7 19 Sudoeste 32 Sudoeste 0 -- -- 100
2021-02-07 17:00:00 2.1 20 Sudoeste 33 Sudoeste 0.2 -- -- 100
2021-02-07 16:00:00 2.3 21 Sudoeste 33 Sudoeste 0.2 -- -- 100
2021-02-07 15:00:00 2.3 22 Sudoeste 40 Oeste 0.4 -- -- 98
2021-02-07 14:00:00 2 28 Sudoeste 41 Sudoeste 0.2 -- -- 93
2021-02-07 13:00:00 3.3 17 Sudoeste 27 Sudoeste 0 -- -- 88
2021-02-07 12:00:00 3.1 17 Sudoeste 24 Sudoeste 0 -- -- 87
2021-02-07 11:00:00 2.8 9 Sudoeste 18 Sur 0 -- -- 94
2021-02-07 10:00:00 0.9 12 Sudoeste 18 Sudoeste 0 -- -- 100
2021-02-07 09:00:00 1.1 11 Sudoeste 19 Sudoeste 0 -- -- 100
2021-02-07 08:00:00 1 8 Sudoeste 13 Sudoeste 0 -- -- 100
2021-02-07 07:00:00 1.4 0 Calma 6 Sur 0 -- -- 98
2021-02-07 06:00:00 1.5 4 Sur 6 Sur 0 -- -- 98
2021-02-07 05:00:00 1.7 3 Sur 6 Sudeste 0 -- -- 93
2021-02-07 04:00:00 1.5 5 Sudeste 8 Sur 0 -- -- 96
2021-02-07 03:00:00 2.2 5 Nordeste 10 Este 0 -- -- 93
2021-02-07 02:00:00 3 3 Norte 9 Nordeste 0 -- -- 90
2021-02-07 01:00:00 3.3 9 Este 15 Este 0 -- -- 89
2021-02-07 00:00:00 3.6 11 Este 16 Este 0.2 -- -- 92
2021-02-06 23:00:00 4.4 10 Nordeste 16 Este 0 -- -- 88
2021-02-06 22:00:00 4.4 5 Norte 8 Nordeste 0 -- -- 98
2021-02-06 21:00:00 4.7 3 Norte 6 Norte 0 -- -- 95
2021-02-06 20:00:00 5.1 5 Nordeste 9 Norte 0 -- -- 92
2021-02-06 19:00:00 5.3 7 Nordeste 18 Nordeste 0 -- -- 89
2021-02-06 18:00:00 6 13 Nordeste 28 Norte 0 -- -- 86
2021-02-06 17:00:00 6.6 13 Norte 22 Nordeste 0 -- -- 90
2021-02-06 16:00:00 6.2 12 Nordeste 30 Nordeste 0 -- -- 89
2021-02-06 15:00:00 6 24 Nordeste 37 Nordeste 0 -- -- 88
2021-02-06 14:00:00 5.8 26 Nordeste 39 Nordeste 0 -- -- 90
2021-02-06 13:00:00 5.8 24 Nordeste 43 Nordeste 0 -- -- 93
2021-02-06 12:00:00 5.4 26 Nordeste 38 Nordeste 0 -- -- 92
2021-02-06 11:00:00 4.8 25 Nordeste 42 Nordeste 0 -- -- 95
2021-02-06 10:00:00 4.6 26 Nordeste 37 Nordeste 0 -- -- 97
2021-02-06 09:00:00 4.2 21 Nordeste 38 Norte 1.2 -- -- 98
2021-02-06 08:00:00 4.3 19 Nordeste 36 Norte 0.6 -- -- 100
2021-02-06 07:00:00 4.4 19 Nordeste 31 Nordeste 0.4 -- -- 99
2021-02-06 06:00:00 4.6 19 Nordeste 31 Norte 1.2 -- -- 99
2021-02-06 05:00:00 5 22 Nordeste 31 Nordeste 0.6 -- -- 99
2021-02-06 04:00:00 5.3 19 Nordeste 33 Nordeste 1.6 -- -- 100
2021-02-06 03:00:00 6.8 13 Nordeste 26 Nordeste 0.6 -- -- 100
2021-02-06 02:00:00 6.6 17 Nordeste 28 Nordeste 1.8 -- -- 100
2021-02-06 01:00:00 6.7 19 Nordeste 37 Nordeste 2.2 -- -- 100
2021-02-06 00:00:00 6.7 22 Nordeste 31 Nordeste 0 -- -- 100
2021-02-05 23:00:00 6.9 19 Nordeste 25 Norte 0 -- -- 100
2021-02-05 22:00:00 6.6 13 Norte 19 Norte 1.2 -- -- 100
2021-02-05 21:00:00 6.6 9 Noroeste 17 Noroeste 2.4 -- -- 100
2021-02-05 20:00:00 6.5 5 Oeste 8 Sudoeste 3.4 -- -- 100
2021-02-05 19:00:00 6.7 4 Norte 15 Nordeste 1.4 -- -- 100
2021-02-05 18:00:00 6.7 13 Nordeste 21 Nordeste 0 -- -- 100
2021-02-05 17:00:00 7 15 Nordeste 19 Nordeste 0.8 -- -- 100
2021-02-05 16:00:00 7.7 9 Nordeste 13 Nordeste 0 -- -- 99
2021-02-05 15:00:00 8.4 10 Nordeste 17 Nordeste 0 -- -- 99
2021-02-05 14:00:00 6.7 16 Nordeste 23 Nordeste 0.4 -- -- 100
2021-02-05 13:00:00 6 20 Nordeste 25 Nordeste 0.8 -- -- 100
2021-02-05 12:00:00 6.7 18 Nordeste 25 Nordeste 0.2 -- -- 100
2021-02-05 11:00:00 5.4 20 Nordeste 29 Nordeste 0 -- -- 100
2021-02-05 10:00:00 4.7 21 Nordeste 28 Nordeste 0.6 -- -- 100
2021-02-05 09:00:00 4.7 18 Nordeste 26 Nordeste 0.2 -- -- 100
2021-02-05 08:00:00 4.5 16 Nordeste 23 Nordeste 1.4 -- -- 100
2021-02-05 07:00:00 4.6 19 Nordeste 26 Nordeste 4.8 -- -- 100
2021-02-05 06:00:00 4.6 18 Nordeste 27 Nordeste 0.2 -- -- 100
2021-02-05 05:00:00 4.5 17 Nordeste 23 Nordeste 0.2 -- -- 100
2021-02-05 04:00:00 4.4 9 Nordeste 21 Este 0.2 -- -- 100
2021-02-05 03:00:00 4.4 15 Nordeste 26 Nordeste 0.2 -- -- 100
2021-02-05 02:00:00 4.5 9 Nordeste 13 Nordeste 0.2 -- -- 100
2021-02-05 01:00:00 4.5 12 Norte 15 Norte 0 -- -- 100
2021-02-05 00:00:00 4.4 12 Nordeste 15 Nordeste 0 -- -- 100
2021-02-04 23:00:00 4.4 10 Nordeste 16 Este 0 -- -- 100
2021-02-04 22:00:00 4.3 8 Nordeste 12 Nordeste 0 -- -- 100
2021-02-04 21:00:00 4.4 6 Nordeste 9 Nordeste 0 -- -- 100
2021-02-04 20:00:00 4.1 9 Nordeste 11 Nordeste 0 -- -- 100
2021-02-04 19:00:00 4.6 7 Este 14 Este 0 -- -- 100
2021-02-04 18:00:00 5.1 10 Este 18 Sudeste 0.2 -- -- 99
2021-02-04 17:00:00 5.3 10 Sudeste 17 Sudeste 0.6 -- -- 100
2021-02-04 16:00:00 5.3 8 Sudeste 14 Este 0.8 -- -- 99
2021-02-04 15:00:00 5.9 7 Este 12 Sudeste 0.4 -- -- 97
2021-02-04 14:00:00 5.7 5 Norte 9 Nordeste 0.8 -- -- 96
2021-02-04 13:00:00 5.6 6 Norte 9 Nordeste 1.2 -- -- 97
2021-02-04 12:00:00 5.9 5 Nordeste 8 Nordeste 0.6 -- -- 100
2021-02-04 11:00:00 5.9 2 Nordeste 11 Este 0 -- -- 100
2021-02-04 10:00:00 5.5 6 Este 12 Este 0 -- -- 100
2021-02-04 09:00:00 4.1 6 Este 9 Nordeste 0 -- -- 100
2021-02-04 08:00:00 4.6 6 Norte 8 Norte 0 -- -- 100
2021-02-04 07:00:00 5.1 4 Sudoeste 10 Sudoeste 0 -- -- 100
2021-02-04 06:00:00 5.6 7 Sudoeste 25 Sur 0 -- -- 98
2021-02-04 05:00:00 5.9 14 Sur 23 Sur 0 -- -- 99
2021-02-04 04:00:00 5.7 12 Sur 25 Sur 0 -- -- 97
2021-02-04 03:00:00 5.8 13 Sudoeste 22 Sudoeste 0 -- -- 96
2021-02-04 02:00:00 5.7 12 Sudoeste 22 Sudoeste 0 -- -- 93
2021-02-04 01:00:00 5.5 14 Sudoeste 22 Sudoeste 0 -- -- 93
2021-02-04 00:00:00 4.9 9 Sudoeste 26 Sudoeste 0 -- -- 96